Aérodrome :
LOGIN :

S'inscrire | Disclaimer

   EN    FR    IT 

 










Légende :    VFR   VFR Marginal   IFR   IFR Intensif   IFR Très Intensif
Visi : 
Plafond : 
>= 8 km
>= 3000ft
5 à 8 km
1000 à 3000 ft
1500m à 5 km
500 à 1000 ft
800 à 1500m
200 à 500 ft
< 800m
< 200 ft
Symboles :   Orages  Brouillard  Fortes neiges  Fortes précipitations  Vent > 20 kt
SIGMETs :   Divers  Orages  Givrage  Turbulence  Onde Orograph.  Cendres Volcan.






- Altitude de l'aérodrome : 174 ft
- Code IATA : RYG


ENRY - Moss , Rygge

DERNIER METAR :
  • 280450Z AUTO 14007KT 9999NDV FEW005/// SCT007/// BKN009/// 13/12 Q1015

METARs EXPIRÉS :
  • 280420Z AUTO 13008KT 9999NDV BKN007/// OVC013/// 13/12 Q1015
  • 280350Z AUTO 13008KT 9999NDV FEW005/// SCT010/// BKN021/// 13/12 Q1015
  • 280320Z AUTO 14009KT 9999NDV -RA BKN005/// BKN040/// 13/12 Q1015 RERA
  • 280250Z AUTO 15010KT 9999NDV -RA BKN005/// OVC010/// 13/12 Q1015
  • 280220Z AUTO 15011KT 9999NDV -RA SCT006/// BKN008/// OVC010/// 13/12 Q1014 RESHRA
  • 280150Z AUTO 13010KT 9999NDV RA BKN006/// OVC009/// 12/11 Q1014 RESHRA

TAF TAF ENRY
Valide du 28 à 00h jusqu'au 29 à 00h UTC


2800/2824 12015KT 9000 -RA BKN010
PROB40
TEMPO 2800/2802 14015G25KT
TEMPO 2800/2808 2500 +SHRA BR BKN004
BECMG 2802/2804 18008KT
BECMG 2812/2814 SCT020



MET'MAP, la Météo Aéronautique d'un coup d'oeil ! - Copyright ORBIFLY Décembre 2007 - Disclaimer

ORBIFLY MET'MAP TEAM :

Programmation & Développement : Alexandra Zaïnal
Sur une idée originale de : Baudouin d'Aumeries
Assistance à la programmation : Marc-Olivier Méhu
Soutien technique & logistique : Manuel Goepfert

Contact : metmap@orbifly.com




SOURCES & CREDITS :

   NOAA